createdAt,value
2023-03-28T00:01:17.479Z,19.22
2023-03-28T00:03:48.146Z,19.22
2023-03-28T00:06:18.830Z,19.19
2023-03-28T00:08:48.334Z,19.14
2023-03-28T00:11:20.288Z,19.13
2023-03-28T00:13:50.441Z,19.06
2023-03-28T00:16:19.163Z,19.00
2023-03-28T00:18:47.818Z,18.96
2023-03-28T00:21:24.509Z,18.93
2023-03-28T00:23:54.507Z,18.93
2023-03-28T00:26:27.572Z,18.96
2023-03-28T00:28:56.427Z,18.96
2023-03-28T00:31:26.139Z,18.98
2023-03-28T00:33:54.461Z,19.00
2023-03-28T00:36:26.782Z,19.01
2023-03-28T00:39:01.608Z,18.98
2023-03-28T00:41:33.247Z,18.95
2023-03-28T00:44:02.052Z,18.86
2023-03-28T00:46:32.789Z,18.73
2023-03-28T00:49:13.137Z,18.65
2023-03-28T00:51:48.826Z,18.56
2023-03-28T00:54:18.862Z,18.52
2023-03-28T00:56:52.552Z,18.50
2023-03-28T00:59:23.743Z,18.47
2023-03-28T01:01:52.109Z,18.37
2023-03-28T01:04:22.458Z,18.30
2023-03-28T01:06:54.974Z,18.22
2023-03-28T01:09:24.886Z,18.28
2023-03-28T01:11:54.915Z,18.30
2023-03-28T01:14:24.929Z,18.30
2023-03-28T01:16:56.728Z,18.32
2023-03-28T01:19:38.871Z,18.37
2023-03-28T01:22:29.064Z,18.43
2023-03-28T01:25:23.354Z,18.39
2023-03-28T01:28:27.464Z,18.34
2023-03-28T01:30:59.336Z,18.29
2023-03-28T01:34:13.300Z,18.17
2023-03-28T01:37:01.828Z,18.05
2023-03-28T01:39:38.190Z,17.96
2023-03-28T01:42:27.760Z,17.92
2023-03-28T01:45:08.434Z,17.98
2023-03-28T01:47:41.497Z,18.06
2023-03-28T01:50:18.412Z,18.12
2023-03-28T01:52:46.976Z,18.26
2023-03-28T01:55:20.581Z,18.26
2023-03-28T01:58:08.519Z,18.16
2023-03-28T02:00:49.866Z,17.95
2023-03-28T02:03:21.804Z,17.78
2023-03-28T02:05:57.733Z,17.62
2023-03-28T02:08:29.164Z,17.53
2023-03-28T02:11:25.115Z,17.53
2023-03-28T02:14:14.875Z,17.62
2023-03-28T02:16:54.480Z,17.75
2023-03-28T02:19:38.689Z,17.94
2023-03-28T02:22:20.596Z,18.11
2023-03-28T02:25:01.249Z,18.30
2023-03-28T02:27:37.748Z,18.45
2023-03-28T02:30:25.770Z,18.58
2023-03-28T02:33:02.658Z,18.64
2023-03-28T02:36:05.871Z,18.69
2023-03-28T02:38:48.678Z,18.65
2023-03-28T02:41:45.400Z,18.62
2023-03-28T02:44:20.817Z,18.45
2023-03-28T02:46:59.509Z,18.22
2023-03-28T02:49:49.451Z,17.99
2023-03-28T02:52:40.428Z,17.78
2023-03-28T02:55:13.835Z,17.55
2023-03-28T02:57:54.544Z,17.24
2023-03-28T03:00:23.124Z,17.01
2023-03-28T03:02:52.762Z,16.77
2023-03-28T03:05:21.402Z,16.60
2023-03-28T03:07:50.033Z,16.46
2023-03-28T03:10:18.908Z,16.36
2023-03-28T03:12:49.738Z,16.22
2023-03-28T03:15:18.559Z,16.12
2023-03-28T03:17:47.749Z,16.05
2023-03-28T03:20:16.624Z,16.01
2023-03-28T03:22:45.468Z,15.96
2023-03-28T03:25:16.564Z,15.97
2023-03-28T03:27:54.448Z,15.99
2023-03-28T03:30:23.637Z,15.99
2023-03-28T03:33:10.702Z,15.98
2023-03-28T03:35:42.285Z,16.03
2023-03-28T03:38:10.837Z,16.08
2023-03-28T03:40:39.312Z,16.11
2023-03-28T03:43:11.762Z,16.19
2023-03-28T03:45:41.197Z,16.25
2023-03-28T03:48:10.389Z,16.28
2023-03-28T03:50:39.780Z,16.25
2023-03-28T03:53:16.972Z,16.28
2023-03-28T03:55:53.512Z,16.41
2023-03-28T03:58:22.639Z,16.52
2023-03-28T04:00:53.290Z,16.61
2023-03-28T04:03:41.776Z,16.75
2023-03-28T04:06:10.193Z,16.85
2023-03-28T04:08:38.797Z,16.93
2023-03-28T04:11:10.755Z,16.99
2023-03-28T04:13:42.907Z,17.04
2023-03-28T04:16:13.851Z,17.08
2023-03-28T04:18:51.190Z,17.20
2023-03-28T04:21:25.997Z,17.35
2023-03-28T04:23:56.512Z,17.49
2023-03-28T04:26:38.185Z,17.60
2023-03-28T04:29:10.604Z,17.72
2023-03-28T04:31:40.366Z,17.85
2023-03-28T04:34:20.345Z,17.99
2023-03-28T04:37:03.473Z,18.10
2023-03-28T04:39:35.864Z,18.20
2023-03-28T04:42:22.854Z,18.26
2023-03-28T04:45:17.990Z,18.29
2023-03-28T04:47:48.457Z,18.31
2023-03-28T04:50:18.246Z,18.34
2023-03-28T04:52:46.996Z,18.39
2023-03-28T04:55:17.463Z,18.43
2023-03-28T04:57:50.512Z,18.45
2023-03-28T05:00:22.786Z,18.45
2023-03-28T05:03:05.213Z,18.43
2023-03-28T05:05:45.653Z,18.43
2023-03-28T05:08:15.986Z,18.43
2023-03-28T05:10:45.392Z,18.41
2023-03-28T05:13:13.975Z,18.40
2023-03-28T05:15:46.777Z,18.36
2023-03-28T05:18:35.100Z,18.17
2023-03-28T05:21:03.905Z,17.95
2023-03-28T05:23:32.786Z,17.70
2023-03-28T05:26:02.839Z,17.40
2023-03-28T05:28:34.611Z,17.05
2023-03-28T05:33:55.797Z,15.44
2023-03-28T05:36:34.104Z,16.30
2023-03-28T05:39:03.137Z,16.36
2023-03-28T05:41:33.129Z,16.36
2023-03-28T05:44:01.340Z,16.33
2023-03-28T05:46:43.503Z,16.33
2023-03-28T05:49:12.340Z,16.37
2023-03-28T05:51:41.803Z,16.45
2023-03-28T05:54:10.701Z,16.53
2023-03-28T05:56:44.318Z,16.61
2023-03-28T05:59:14.759Z,16.64
2023-03-28T06:01:46.384Z,16.65
2023-03-28T06:04:15.983Z,16.70
2023-03-28T06:06:46.013Z,16.67
2023-03-28T06:09:14.914Z,16.62
2023-03-28T06:11:52.146Z,16.61
2023-03-28T06:15:12.792Z,16.55
2023-03-28T06:17:50.813Z,16.46
2023-03-28T06:20:19.447Z,16.42
2023-03-28T06:22:47.973Z,16.43
2023-03-28T06:25:16.216Z,16.45
2023-03-28T06:27:44.445Z,16.43
2023-03-28T06:30:13.780Z,16.44
2023-03-28T06:32:47.442Z,16.47
2023-03-28T06:35:16.713Z,16.46
2023-03-28T06:37:45.035Z,16.43
2023-03-28T06:40:16.970Z,16.41
2023-03-28T06:42:46.583Z,16.46
2023-03-28T06:45:32.553Z,16.52
2023-03-28T06:48:05.441Z,16.57
2023-03-28T06:50:59.890Z,16.66
2023-03-28T06:53:28.557Z,16.69
2023-03-28T06:55:56.833Z,16.65
2023-03-28T06:58:26.186Z,16.60
2023-03-28T07:00:59.446Z,16.50
2023-03-28T07:03:44.244Z,16.42
2023-03-28T07:06:14.616Z,16.40
2023-03-28T07:08:44.696Z,16.47
2023-03-28T07:11:13.160Z,16.59
2023-03-28T07:13:43.210Z,16.63
2023-03-28T07:16:13.278Z,16.63
2023-03-28T07:18:41.793Z,16.59
2023-03-28T07:21:12.060Z,16.53
2023-03-28T07:23:41.254Z,16.52
2023-03-28T07:26:10.235Z,16.50
2023-03-28T07:28:40.016Z,16.50
2023-03-28T07:31:08.287Z,16.51
2023-03-28T07:33:41.635Z,16.49
2023-03-28T07:36:16.674Z,16.52
2023-03-28T07:38:49.223Z,16.58
2023-03-28T07:41:18.954Z,16.58
2023-03-28T07:43:47.167Z,16.57
2023-03-28T07:46:16.472Z,16.63
2023-03-28T07:48:46.759Z,16.69
2023-03-28T07:51:15.734Z,16.71
2023-03-28T07:53:46.124Z,16.73
2023-03-28T07:56:14.923Z,16.77
2023-03-28T08:03:29.384Z,16.82
2023-03-28T08:06:02.775Z,16.88
2023-03-28T08:08:31.634Z,16.96
2023-03-28T08:11:06.700Z,17.01
2023-03-28T08:13:35.410Z,17.01
2023-03-28T08:16:08.463Z,17.02
2023-03-28T08:18:36.660Z,17.06
2023-03-28T08:21:10.926Z,17.07
2023-03-28T08:23:40.101Z,17.14
2023-03-28T08:26:40.674Z,17.17
2023-03-28T08:29:11.658Z,17.15
2023-03-28T08:31:39.989Z,17.17
2023-03-28T08:34:12.545Z,17.22
2023-03-28T08:36:42.531Z,17.28
2023-03-28T08:39:20.646Z,17.27
2023-03-28T08:41:58.685Z,17.19
2023-03-28T08:44:33.765Z,17.12
2023-03-28T08:47:04.672Z,17.06
2023-03-28T08:49:34.654Z,16.97
2023-03-28T08:52:05.657Z,16.85
2023-03-28T08:55:01.425Z,16.73
2023-03-28T08:57:36.015Z,16.64
2023-03-28T09:00:14.718Z,16.63
2023-03-28T09:02:44.138Z,16.65
2023-03-28T09:05:23.769Z,16.69
2023-03-28T09:07:59.983Z,16.69
2023-03-28T09:10:36.456Z,16.70
2023-03-28T09:14:03.030Z,16.69
2023-03-28T09:16:43.210Z,16.69
2023-03-28T09:19:55.343Z,16.65
2023-03-28T09:22:53.161Z,16.65
2023-03-28T09:25:32.860Z,16.69
2023-03-28T09:28:08.037Z,16.74
2023-03-28T09:30:39.349Z,16.79
2023-03-28T09:33:13.290Z,16.79
2023-03-28T09:35:43.330Z,16.77
2023-03-28T09:38:21.353Z,16.74
2023-03-28T09:40:52.216Z,16.71
2023-03-28T09:43:20.325Z,16.68
2023-03-28T09:46:11.927Z,16.72
2023-03-28T09:49:01.244Z,16.82
2023-03-28T09:51:32.307Z,16.90
2023-03-28T09:54:05.067Z,16.87
2023-03-28T09:56:34.546Z,16.81
2023-03-28T09:59:31.145Z,16.73
2023-03-28T10:02:05.723Z,16.62
2023-03-28T10:04:38.472Z,16.55
2023-03-28T10:07:30.068Z,16.58
2023-03-28T10:10:13.711Z,16.59
2023-03-28T10:12:47.381Z,16.54
2023-03-28T10:15:34.145Z,16.42
2023-03-28T10:18:21.031Z,16.37
2023-03-28T10:21:09.194Z,16.36
2023-03-28T10:23:41.270Z,16.19
2023-03-28T10:26:13.106Z,16.09
2023-03-28T10:28:43.450Z,16.01
2023-03-28T10:31:26.489Z,15.88
2023-03-28T10:33:56.623Z,15.81
2023-03-28T10:36:45.004Z,15.78
2023-03-28T10:39:24.374Z,15.74
2023-03-28T10:42:15.669Z,15.72
2023-03-28T10:45:04.484Z,15.75
2023-03-28T10:47:36.667Z,15.76
2023-03-28T10:50:07.351Z,15.78
2023-03-28T10:52:47.608Z,15.79
2023-03-28T10:55:25.205Z,15.76
2023-03-28T10:58:33.810Z,15.66
2023-03-28T11:01:13.360Z,15.57
2023-03-28T11:04:25.436Z,15.48
2023-03-28T11:07:11.439Z,15.43
2023-03-28T11:10:23.942Z,15.49
2023-03-28T11:13:38.596Z,15.47
2023-03-28T11:16:27.528Z,15.53
2023-03-28T11:19:30.765Z,15.63
2023-03-28T11:22:02.937Z,15.69
2023-03-28T11:24:45.645Z,15.70
2023-03-28T11:27:59.772Z,15.72
2023-03-28T11:30:36.389Z,15.77
2023-03-28T11:33:27.192Z,15.87
2023-03-28T11:36:03.706Z,15.97
2023-03-28T11:38:33.714Z,16.01
2023-03-28T11:41:11.401Z,16.04
2023-03-28T11:44:18.656Z,16.13
2023-03-28T11:47:03.436Z,16.24
2023-03-28T11:49:38.191Z,16.33
2023-03-28T11:52:17.448Z,16.41
2023-03-28T11:55:14.933Z,16.54
2023-03-28T11:57:57.082Z,16.74
2023-03-28T12:00:33.634Z,16.89
2023-03-28T12:03:24.040Z,17.03
2023-03-28T12:06:05.364Z,17.23
2023-03-28T12:08:57.290Z,17.44
2023-03-28T12:12:05.084Z,17.67
2023-03-28T12:14:50.043Z,17.89
2023-03-28T12:17:41.172Z,18.03
2023-03-28T12:20:32.410Z,18.11
2023-03-28T12:23:10.071Z,18.17
2023-03-28T12:26:18.415Z,18.25
2023-03-28T12:28:51.374Z,18.26
2023-03-28T12:31:29.261Z,18.09
2023-03-28T12:34:16.033Z,17.83
2023-03-28T12:37:25.146Z,17.44
2023-03-28T12:40:12.987Z,17.09
2023-03-28T12:42:44.055Z,16.83
2023-03-28T12:45:29.730Z,16.65
2023-03-28T12:48:08.122Z,16.40
2023-03-28T12:51:15.277Z,16.21
2023-03-28T12:54:09.986Z,16.08
2023-03-28T12:56:42.112Z,15.92
2023-03-28T12:59:48.070Z,15.80
2023-03-28T13:02:51.790Z,15.70
2023-03-28T13:05:49.230Z,15.60
2023-03-28T13:08:46.487Z,15.53
2023-03-28T13:11:39.993Z,15.36
2023-03-28T13:14:29.081Z,15.19
2023-03-28T13:17:03.053Z,15.03
2023-03-28T13:19:54.194Z,14.81
2023-03-28T13:22:33.235Z,14.66
2023-03-28T13:25:32.505Z,14.56
2023-03-28T13:28:34.159Z,14.38
2023-03-28T13:31:11.366Z,14.16
2023-03-28T13:34:04.219Z,13.99
2023-03-28T13:36:54.167Z,13.80
2023-03-28T13:39:28.385Z,13.67
2023-03-28T13:50:01.347Z,13.06
2023-03-28T13:52:28.921Z,12.89
2023-03-28T13:55:04.521Z,12.75
2023-03-28T13:57:31.746Z,12.60
2023-03-28T14:00:00.856Z,12.52
2023-03-28T14:02:37.932Z,12.45
2023-03-28T14:05:14.585Z,12.29
2023-03-28T14:07:41.734Z,12.11
2023-03-28T14:10:28.533Z,11.93
2023-03-28T14:13:05.621Z,11.82
2023-03-28T14:15:38.365Z,11.73
2023-03-28T14:18:05.735Z,11.64
2023-03-28T14:20:32.920Z,11.60
2023-03-28T14:23:01.270Z,11.48
2023-03-28T14:25:29.570Z,11.34
2023-03-28T14:27:57.317Z,11.25
2023-03-28T14:30:29.310Z,11.24
2023-03-28T14:32:58.521Z,11.24
2023-03-28T14:35:32.993Z,11.16
2023-03-28T14:38:02.282Z,11.00
2023-03-28T14:40:33.893Z,10.89
2023-03-28T14:43:04.004Z,10.86
2023-03-28T14:45:33.822Z,10.77
2023-03-28T14:48:02.379Z,10.69
2023-03-28T14:50:35.416Z,10.60
2023-03-28T14:53:07.460Z,10.55
2023-03-28T14:55:36.504Z,10.53
2023-03-28T14:58:05.141Z,10.51
2023-03-28T15:00:48.019Z,10.48
2023-03-28T15:03:16.678Z,10.48
2023-03-28T15:06:38.899Z,10.47
2023-03-28T15:09:30.939Z,10.44
2023-03-28T15:12:04.512Z,10.41
2023-03-28T15:14:42.190Z,10.38
2023-03-28T15:17:17.713Z,10.44
2023-03-28T15:19:50.344Z,10.50
2023-03-28T15:22:21.642Z,10.57
2023-03-28T15:24:52.134Z,10.58
2023-03-28T15:27:31.311Z,10.57
2023-03-28T15:29:58.601Z,10.51
2023-03-28T15:32:25.436Z,10.48
2023-03-28T15:35:06.301Z,10.44
2023-03-28T15:37:40.918Z,10.44
2023-03-28T15:40:29.062Z,10.42
2023-03-28T15:42:56.475Z,10.43
2023-03-28T15:45:29.651Z,10.42
2023-03-28T15:47:56.862Z,10.36
2023-03-28T15:50:35.537Z,10.32
2023-03-28T15:53:06.795Z,10.31
2023-03-28T15:55:33.739Z,10.32
2023-03-28T15:58:03.336Z,10.34
2023-03-28T16:00:42.069Z,10.34
2023-03-28T16:03:25.261Z,10.37
2023-03-28T16:06:07.811Z,10.37
2023-03-28T16:08:46.224Z,10.36
2023-03-28T16:11:16.960Z,10.38
2023-03-28T16:13:47.176Z,10.36
2023-03-28T16:16:39.429Z,10.35
2023-03-28T16:19:21.535Z,10.32
2023-03-28T16:21:49.376Z,10.28
2023-03-28T16:24:16.854Z,10.26
2023-03-28T16:26:44.202Z,10.22
2023-03-28T16:29:12.175Z,10.19
2023-03-28T16:31:39.358Z,10.15
2023-03-28T16:36:04.429Z,9.73
2023-03-28T16:38:32.801Z,10.83
2023-03-28T16:41:00.249Z,11.31
2023-03-28T16:43:28.633Z,11.59
2023-03-28T16:45:56.693Z,11.84
2023-03-28T16:48:23.869Z,12.01
2023-03-28T16:50:55.304Z,12.10
2023-03-28T16:53:22.372Z,12.14
2023-03-28T16:55:50.160Z,12.17
2023-03-28T16:58:17.553Z,11.98
2023-03-28T17:00:49.794Z,11.60
2023-03-28T17:03:18.019Z,11.24
2023-03-28T17:05:45.925Z,11.04
2023-03-28T17:08:13.776Z,10.87
2023-03-28T17:10:42.697Z,10.72
2023-03-28T17:13:09.639Z,10.77
2023-03-28T17:15:36.668Z,11.03
2023-03-28T17:18:06.807Z,11.31
2023-03-28T17:20:33.782Z,11.57
2023-03-28T17:23:01.288Z,11.86
2023-03-28T17:25:28.853Z,12.06
2023-03-28T17:27:55.760Z,12.16
2023-03-28T17:30:23.156Z,12.22
2023-03-28T17:32:53.557Z,12.36
2023-03-28T17:35:21.101Z,12.51
2023-03-28T17:37:52.193Z,12.55
2023-03-28T17:40:19.345Z,12.57
2023-03-28T17:42:46.597Z,12.61
2023-03-28T17:45:14.773Z,12.70
2023-03-28T17:47:42.371Z,12.74
2023-03-28T17:50:10.711Z,12.80
2023-03-28T17:52:37.962Z,12.97
2023-03-28T17:55:08.464Z,13.11
2023-03-28T17:57:36.564Z,13.10
2023-03-28T18:00:04.562Z,13.08
2023-03-28T18:02:50.340Z,13.11
2023-03-28T18:05:47.206Z,13.07
2023-03-28T18:08:14.116Z,12.95
2023-03-28T18:10:42.616Z,12.75
2023-03-28T18:13:10.172Z,12.31
2023-03-28T18:15:40.239Z,11.83
2023-03-28T18:18:08.695Z,11.42
2023-03-28T18:20:36.128Z,11.06
2023-03-28T18:23:04.111Z,10.66
2023-03-28T18:25:33.611Z,10.31
2023-03-28T18:28:01.477Z,10.10
2023-03-28T18:30:29.030Z,9.89
2023-03-28T18:32:56.423Z,9.72
2023-03-28T18:35:26.559Z,9.62
2023-03-28T18:37:53.665Z,9.55
2023-03-28T18:40:21.627Z,9.41
2023-03-28T18:42:49.494Z,9.31
2023-03-28T18:45:17.152Z,9.28
2023-03-28T18:47:44.950Z,9.27
2023-03-28T18:50:12.164Z,9.24
2023-03-28T18:52:39.159Z,9.17
2023-03-28T18:55:07.202Z,9.07
2023-03-28T18:57:34.597Z,9.00
2023-03-28T19:00:15.645Z,8.93
2023-03-28T19:02:47.913Z,8.88
2023-03-28T19:05:16.224Z,8.90
2023-03-28T19:07:44.997Z,8.76
2023-03-28T19:10:12.828Z,8.73
2023-03-28T19:12:44.709Z,8.67
2023-03-28T19:15:16.574Z,8.62
2023-03-28T19:17:46.118Z,8.61
2023-03-28T19:20:13.472Z,8.59
2023-03-28T19:22:42.019Z,8.53
2023-03-28T19:25:09.574Z,8.40
2023-03-28T19:27:37.276Z,8.35
2023-03-28T19:30:07.720Z,8.39
2023-03-28T19:32:36.792Z,8.44
2023-03-28T19:35:04.577Z,8.44
2023-03-28T19:37:31.686Z,8.42
2023-03-28T19:39:58.949Z,8.35
2023-03-28T19:42:26.520Z,8.30
2023-03-28T19:44:54.156Z,8.30
2023-03-28T19:47:21.745Z,8.35
2023-03-28T19:49:49.688Z,8.40
2023-03-28T19:52:16.741Z,8.43
2023-03-28T19:54:45.117Z,8.42
2023-03-28T19:57:13.221Z,8.42
2023-03-28T19:59:40.231Z,8.40
2023-03-28T20:02:09.575Z,8.39
2023-03-28T20:04:38.527Z,8.38
2023-03-28T20:07:06.309Z,8.43
2023-03-28T20:09:41.690Z,8.44
2023-03-28T20:12:08.692Z,8.43
2023-03-28T20:14:36.058Z,8.41
2023-03-28T20:17:03.482Z,8.43
2023-03-28T20:19:31.293Z,8.49
2023-03-28T20:21:58.333Z,8.54
2023-03-28T20:24:25.718Z,8.54
2023-03-28T20:26:52.674Z,8.53
2023-03-28T20:29:21.423Z,8.57
2023-03-28T20:31:48.535Z,8.60
2023-03-28T20:34:15.837Z,8.64
2023-03-28T20:36:45.946Z,8.74
2023-03-28T20:39:13.812Z,8.82
2023-03-28T20:41:41.013Z,8.86
2023-03-28T20:44:19.389Z,8.83
2023-03-28T20:46:48.329Z,8.81
2023-03-28T20:49:20.862Z,8.82
2023-03-28T20:51:51.897Z,8.84
2023-03-28T20:54:21.307Z,8.83
2023-03-28T20:57:08.566Z,8.88
2023-03-28T20:59:36.279Z,8.86
2023-03-28T21:02:04.768Z,8.76
2023-03-28T21:04:32.160Z,8.70
2023-03-28T21:07:01.123Z,8.68
2023-03-28T21:09:29.049Z,8.67
2023-03-28T21:11:56.049Z,8.72
2023-03-28T21:14:28.818Z,8.77
2023-03-28T21:16:57.526Z,8.78
2023-03-28T21:19:24.659Z,8.76
2023-03-28T21:21:56.724Z,8.73
2023-03-28T21:24:23.957Z,8.72
2023-03-28T21:26:51.361Z,8.74
2023-03-28T21:29:18.858Z,8.80
2023-03-28T21:31:45.891Z,8.88
2023-03-28T21:34:12.997Z,8.96
2023-03-28T21:36:42.092Z,8.97
2023-03-28T21:39:09.112Z,8.96
2023-03-28T21:41:40.695Z,8.96
2023-03-28T21:44:07.488Z,8.97
2023-03-28T21:46:35.266Z,9.00
2023-03-28T21:49:05.263Z,9.00
2023-03-28T21:51:32.882Z,9.04
2023-03-28T21:54:00.149Z,9.06
2023-03-28T21:56:27.185Z,9.07
2023-03-28T21:58:54.254Z,9.07
2023-03-28T22:01:22.930Z,9.05
2023-03-28T22:03:50.819Z,9.07
2023-03-28T22:06:18.250Z,9.14
2023-03-28T22:08:48.987Z,9.23
2023-03-28T22:11:17.481Z,9.27
2023-03-28T22:13:49.760Z,9.30
2023-03-28T22:16:17.068Z,9.28
2023-03-28T22:18:49.118Z,9.28
2023-03-28T22:21:16.796Z,9.28
2023-03-28T22:23:47.197Z,9.29
2023-03-28T22:26:20.366Z,9.34
2023-03-28T22:28:48.744Z,9.38
2023-03-28T22:31:17.020Z,9.36
2023-03-28T22:33:44.167Z,9.38
2023-03-28T22:36:11.672Z,9.53
2023-03-28T22:38:38.773Z,9.56
2023-03-28T22:41:07.165Z,9.46
2023-03-28T22:43:34.505Z,9.41
2023-03-28T22:46:01.880Z,9.40
2023-03-28T22:48:30.842Z,9.42
2023-03-28T22:51:00.258Z,9.40
2023-03-28T22:53:27.804Z,9.35
2023-03-28T22:55:55.001Z,9.36
2023-03-28T22:58:23.255Z,9.35
2023-03-28T23:00:50.505Z,9.32
2023-03-28T23:03:17.655Z,9.33
2023-03-28T23:05:44.967Z,9.32
2023-03-28T23:08:13.394Z,9.29
2023-03-28T23:10:40.498Z,9.31
2023-03-28T23:13:09.944Z,9.36
2023-03-28T23:15:37.288Z,9.36
2023-03-28T23:18:04.625Z,9.28
2023-03-28T23:20:32.449Z,9.17
2023-03-28T23:22:59.589Z,9.12
2023-03-28T23:25:32.066Z,9.13
2023-03-28T23:27:59.098Z,9.17
2023-03-28T23:30:26.659Z,9.24
2023-03-28T23:32:53.840Z,9.31
2023-03-28T23:35:20.866Z,9.37
2023-03-28T23:37:52.546Z,9.38
2023-03-28T23:40:20.159Z,9.38
2023-03-28T23:42:47.107Z,9.37
2023-03-28T23:45:15.160Z,9.35
2023-03-28T23:47:42.994Z,9.32
2023-03-28T23:50:12.212Z,9.32
2023-03-28T23:52:39.817Z,9.40
2023-03-28T23:55:08.210Z,9.49
2023-03-28T23:57:37.462Z,9.52
